sensor_id;sensor_type;location;lat;lon;timestamp;temperature;humidity
16513;DHT22;8369;48.030;11.598;2023-07-20T00:01:26;21.80;99.00
16513;DHT22;8369;48.030;11.598;2023-07-20T00:03:52;21.80;99.10
16513;DHT22;8369;48.030;11.598;2023-07-20T00:06:21;21.80;98.90
16513;DHT22;8369;48.030;11.598;2023-07-20T00:08:48;21.70;98.70
16513;DHT22;8369;48.030;11.598;2023-07-20T00:11:14;21.70;98.70
16513;DHT22;8369;48.030;11.598;2023-07-20T00:13:40;21.70;98.90
16513;DHT22;8369;48.030;11.598;2023-07-20T00:16:07;21.70;98.10
16513;DHT22;8369;48.030;11.598;2023-07-20T00:18:33;21.60;98.60
16513;DHT22;8369;48.030;11.598;2023-07-20T00:20:59;21.60;98.20
16513;DHT22;8369;48.030;11.598;2023-07-20T00:23:26;21.50;97.70
16513;DHT22;8369;48.030;11.598;2023-07-20T00:25:52;21.50;97.10
16513;DHT22;8369;48.030;11.598;2023-07-20T00:28:17;21.50;97.90
16513;DHT22;8369;48.030;11.598;2023-07-20T00:30:43;21.50;97.60
16513;DHT22;8369;48.030;11.598;2023-07-20T00:33:11;21.50;97.30
16513;DHT22;8369;48.030;11.598;2023-07-20T00:35:40;21.50;97.00
16513;DHT22;8369;48.030;11.598;2023-07-20T00:38:06;21.50;96.70
16513;DHT22;8369;48.030;11.598;2023-07-20T00:40:38;21.50;94.20
16513;DHT22;8369;48.030;11.598;2023-07-20T00:43:05;21.50;94.70
16513;DHT22;8369;48.030;11.598;2023-07-20T00:45:31;21.50;93.70
16513;DHT22;8369;48.030;11.598;2023-07-20T00:47:57;21.50;94.40
16513;DHT22;8369;48.030;11.598;2023-07-20T00:50:24;21.50;93.90
16513;DHT22;8369;48.030;11.598;2023-07-20T00:52:50;21.50;94.60
16513;DHT22;8369;48.030;11.598;2023-07-20T00:55:17;21.50;94.70
16513;DHT22;8369;48.030;11.598;2023-07-20T00:57:43;21.50;95.00
16513;DHT22;8369;48.030;11.598;2023-07-20T01:00:10;21.50;94.60
16513;DHT22;8369;48.030;11.598;2023-07-20T01:02:36;21.50;93.40
16513;DHT22;8369;48.030;11.598;2023-07-20T01:05:03;21.50;92.30
16513;DHT22;8369;48.030;11.598;2023-07-20T01:07:38;21.50;92.60
16513;DHT22;8369;48.030;11.598;2023-07-20T01:12:52;21.50;93.60
16513;DHT22;8369;48.030;11.598;2023-07-20T01:15:18;21.50;93.60
16513;DHT22;8369;48.030;11.598;2023-07-20T01:17:44;21.50;93.80
16513;DHT22;8369;48.030;11.598;2023-07-20T01:20:13;21.50;93.90
16513;DHT22;8369;48.030;11.598;2023-07-20T01:31:15;21.50;92.50
16513;DHT22;8369;48.030;11.598;2023-07-20T01:33:42;21.50;92.70
16513;DHT22;8369;48.030;11.598;2023-07-20T01:36:10;21.50;92.80
16513;DHT22;8369;48.030;11.598;2023-07-20T01:38:37;21.60;92.70
16513;DHT22;8369;48.030;11.598;2023-07-20T01:41:04;21.50;92.60
16513;DHT22;8369;48.030;11.598;2023-07-20T01:43:30;21.60;93.00
16513;DHT22;8369;48.030;11.598;2023-07-20T01:45:56;21.60;93.20
16513;DHT22;8369;48.030;11.598;2023-07-20T01:48:22;21.60;93.20
16513;DHT22;8369;48.030;11.598;2023-07-20T01:50:48;21.60;93.10
16513;DHT22;8369;48.030;11.598;2023-07-20T01:53:14;21.60;93.50
16513;DHT22;8369;48.030;11.598;2023-07-20T01:55:40;21.50;93.90
16513;DHT22;8369;48.030;11.598;2023-07-20T01:58:06;21.50;94.20
16513;DHT22;8369;48.030;11.598;2023-07-20T02:00:32;21.50;94.40
16513;DHT22;8369;48.030;11.598;2023-07-20T02:02:58;21.50;94.10
16513;DHT22;8369;48.030;11.598;2023-07-20T02:05:24;21.50;93.90
16513;DHT22;8369;48.030;11.598;2023-07-20T02:07:51;21.50;94.10
16513;DHT22;8369;48.030;11.598;2023-07-20T02:10:16;21.50;93.90
16513;DHT22;8369;48.030;11.598;2023-07-20T02:12:43;21.50;94.10
16513;DHT22;8369;48.030;11.598;2023-07-20T02:15:09;21.50;92.70
16513;DHT22;8369;48.030;11.598;2023-07-20T02:17:35;21.40;92.90
16513;DHT22;8369;48.030;11.598;2023-07-20T02:20:01;21.40;93.50
16513;DHT22;8369;48.030;11.598;2023-07-20T02:22:28;21.40;93.70
16513;DHT22;8369;48.030;11.598;2023-07-20T02:24:54;21.40;93.20
16513;DHT22;8369;48.030;11.598;2023-07-20T02:27:19;21.40;93.00
16513;DHT22;8369;48.030;11.598;2023-07-20T02:29:45;21.40;92.70
16513;DHT22;8369;48.030;11.598;2023-07-20T02:32:11;21.40;92.90
16513;DHT22;8369;48.030;11.598;2023-07-20T02:34:37;21.40;93.10
16513;DHT22;8369;48.030;11.598;2023-07-20T02:37:04;21.40;93.60
16513;DHT22;8369;48.030;11.598;2023-07-20T02:39:30;21.40;93.20
16513;DHT22;8369;48.030;11.598;2023-07-20T02:41:56;21.40;92.90
16513;DHT22;8369;48.030;11.598;2023-07-20T02:44:22;21.40;92.60
16513;DHT22;8369;48.030;11.598;2023-07-20T02:46:49;21.40;92.10
16513;DHT22;8369;48.030;11.598;2023-07-20T02:49:15;21.40;91.70
16513;DHT22;8369;48.030;11.598;2023-07-20T02:51:42;21.40;91.30
16513;DHT22;8369;48.030;11.598;2023-07-20T02:54:08;21.40;91.70
16513;DHT22;8369;48.030;11.598;2023-07-20T02:56:34;21.40;91.50
16513;DHT22;8369;48.030;11.598;2023-07-20T02:59:06;21.40;91.20
16513;DHT22;8369;48.030;11.598;2023-07-20T03:01:32;21.30;91.30
16513;DHT22;8369;48.030;11.598;2023-07-20T03:03:58;21.40;90.80
16513;DHT22;8369;48.030;11.598;2023-07-20T03:06:24;21.30;92.10
16513;DHT22;8369;48.030;11.598;2023-07-20T03:08:51;21.20;96.00
16513;DHT22;8369;48.030;11.598;2023-07-20T03:11:20;21.10;97.20
16513;DHT22;8369;48.030;11.598;2023-07-20T03:13:47;20.90;95.90
16513;DHT22;8369;48.030;11.598;2023-07-20T03:16:17;20.80;97.10
16513;DHT22;8369;48.030;11.598;2023-07-20T03:18:43;20.70;99.50
16513;DHT22;8369;48.030;11.598;2023-07-20T03:21:10;20.60;99.90
16513;DHT22;8369;48.030;11.598;2023-07-20T03:23:40;20.40;99.90
16513;DHT22;8369;48.030;11.598;2023-07-20T03:26:07;20.40;99.90
16513;DHT22;8369;48.030;11.598;2023-07-20T03:28:37;20.30;99.90
16513;DHT22;8369;48.030;11.598;2023-07-20T03:31:04;20.30;99.90
16513;DHT22;8369;48.030;11.598;2023-07-20T03:33:30;20.20;99.90
16513;DHT22;8369;48.030;11.598;2023-07-20T03:35:56;20.10;99.90
16513;DHT22;8369;48.030;11.598;2023-07-20T03:38:24;20.00;99.90
16513;DHT22;8369;48.030;11.598;2023-07-20T03:40:50;19.90;99.90
16513;DHT22;8369;48.030;11.598;2023-07-20T03:43:23;19.80;99.90
16513;DHT22;8369;48.030;11.598;2023-07-20T03:45:50;19.80;99.90
16513;DHT22;8369;48.030;11.598;2023-07-20T03:48:21;19.70;99.90
16513;DHT22;8369;48.030;11.598;2023-07-20T03:50:50;19.60;99.90
16513;DHT22;8369;48.030;11.598;2023-07-20T03:53:16;19.60;99.90
16513;DHT22;8369;48.030;11.598;2023-07-20T03:55:50;19.60;99.90
16513;DHT22;8369;48.030;11.598;2023-07-20T03:58:17;19.60;99.90
16513;DHT22;8369;48.030;11.598;2023-07-20T04:00:45;19.60;99.90
16513;DHT22;8369;48.030;11.598;2023-07-20T04:03:12;19.50;99.90
16513;DHT22;8369;48.030;11.598;2023-07-20T04:05:44;19.50;99.90
16513;DHT22;8369;48.030;11.598;2023-07-20T04:08:10;19.40;99.90
16513;DHT22;8369;48.030;11.598;2023-07-20T04:10:43;19.40;99.90
16513;DHT22;8369;48.030;11.598;2023-07-20T04:13:10;19.40;99.90
16513;DHT22;8369;48.030;11.598;2023-07-20T04:15:36;19.40;99.90
16513;DHT22;8369;48.030;11.598;2023-07-20T04:18:02;19.30;99.90
16513;DHT22;8369;48.030;11.598;2023-07-20T04:20:28;19.30;99.90
16513;DHT22;8369;48.030;11.598;2023-07-20T04:22:53;19.30;99.90
16513;DHT22;8369;48.030;11.598;2023-07-20T04:25:19;19.30;99.90
16513;DHT22;8369;48.030;11.598;2023-07-20T04:27:45;19.30;99.90
16513;DHT22;8369;48.030;11.598;2023-07-20T04:30:11;19.30;99.90
16513;DHT22;8369;48.030;11.598;2023-07-20T04:32:41;19.30;99.90
16513;DHT22;8369;48.030;11.598;2023-07-20T04:35:09;19.30;99.90
16513;DHT22;8369;48.030;11.598;2023-07-20T04:37:35;19.30;99.90
16513;DHT22;8369;48.030;11.598;2023-07-20T04:40:01;19.30;99.90
16513;DHT22;8369;48.030;11.598;2023-07-20T04:42:27;19.30;99.90
16513;DHT22;8369;48.030;11.598;2023-07-20T04:44:53;19.30;99.90
16513;DHT22;8369;48.030;11.598;2023-07-20T04:47:19;19.30;99.90
16513;DHT22;8369;48.030;11.598;2023-07-20T04:49:45;19.30;99.90
16513;DHT22;8369;48.030;11.598;2023-07-20T04:52:11;19.20;99.90
16513;DHT22;8369;48.030;11.598;2023-07-20T04:54:37;19.30;99.90
16513;DHT22;8369;48.030;11.598;2023-07-20T04:57:02;19.20;99.90
16513;DHT22;8369;48.030;11.598;2023-07-20T04:59:29;19.20;99.90
16513;DHT22;8369;48.030;11.598;2023-07-20T05:01:55;19.30;99.90
16513;DHT22;8369;48.030;11.598;2023-07-20T05:04:21;19.30;99.90
16513;DHT22;8369;48.030;11.598;2023-07-20T05:06:47;19.30;99.90
16513;DHT22;8369;48.030;11.598;2023-07-20T05:09:13;19.30;99.90
16513;DHT22;8369;48.030;11.598;2023-07-20T05:11:39;19.30;99.90
16513;DHT22;8369;48.030;11.598;2023-07-20T05:14:05;19.30;99.90
16513;DHT22;8369;48.030;11.598;2023-07-20T05:16:31;19.30;99.90
16513;DHT22;8369;48.030;11.598;2023-07-20T05:18:56;19.30;99.90
16513;DHT22;8369;48.030;11.598;2023-07-20T05:21:23;19.30;99.90
16513;DHT22;8369;48.030;11.598;2023-07-20T05:23:49;19.30;99.90
16513;DHT22;8369;48.030;11.598;2023-07-20T05:26:14;19.40;99.90
16513;DHT22;8369;48.030;11.598;2023-07-20T05:28:40;19.40;99.90
16513;DHT22;8369;48.030;11.598;2023-07-20T05:31:06;19.40;99.90
16513;DHT22;8369;48.030;11.598;2023-07-20T05:33:33;19.40;99.90
16513;DHT22;8369;48.030;11.598;2023-07-20T05:35:58;19.40;99.90
16513;DHT22;8369;48.030;11.598;2023-07-20T05:38:25;19.50;99.90
16513;DHT22;8369;48.030;11.598;2023-07-20T05:40:51;19.60;99.90
16513;DHT22;8369;48.030;11.598;2023-07-20T05:43:17;19.60;99.90
16513;DHT22;8369;48.030;11.598;2023-07-20T05:45:44;19.60;99.90
16513;DHT22;8369;48.030;11.598;2023-07-20T05:48:11;19.60;99.90
16513;DHT22;8369;48.030;11.598;2023-07-20T05:50:43;19.70;99.90
16513;DHT22;8369;48.030;11.598;2023-07-20T05:53:09;19.70;99.90
16513;DHT22;8369;48.030;11.598;2023-07-20T05:55:35;19.80;99.90
16513;DHT22;8369;48.030;11.598;2023-07-20T05:58:01;19.80;99.90
16513;DHT22;8369;48.030;11.598;2023-07-20T06:00:27;19.80;99.90
16513;DHT22;8369;48.030;11.598;2023-07-20T06:02:53;19.80;99.90
16513;DHT22;8369;48.030;11.598;2023-07-20T06:05:21;19.90;99.90
16513;DHT22;8369;48.030;11.598;2023-07-20T06:07:47;20.00;99.90
16513;DHT22;8369;48.030;11.598;2023-07-20T06:10:13;20.00;99.90
16513;DHT22;8369;48.030;11.598;2023-07-20T06:12:40;20.10;99.90
16513;DHT22;8369;48.030;11.598;2023-07-20T06:15:25;20.10;99.90
16513;DHT22;8369;48.030;11.598;2023-07-20T06:17:51;20.20;99.90
16513;DHT22;8369;48.030;11.598;2023-07-20T06:20:17;20.20;99.90
16513;DHT22;8369;48.030;11.598;2023-07-20T06:22:44;20.20;99.90
16513;DHT22;8369;48.030;11.598;2023-07-20T06:25:11;20.20;99.90
16513;DHT22;8369;48.030;11.598;2023-07-20T06:27:37;20.10;99.90
16513;DHT22;8369;48.030;11.598;2023-07-20T06:30:03;20.20;99.90
16513;DHT22;8369;48.030;11.598;2023-07-20T06:32:31;20.20;99.90
16513;DHT22;8369;48.030;11.598;2023-07-20T06:34:57;20.20;99.90
16513;DHT22;8369;48.030;11.598;2023-07-20T06:37:23;20.30;99.90
16513;DHT22;8369;48.030;11.598;2023-07-20T06:39:49;20.30;99.90
16513;DHT22;8369;48.030;11.598;2023-07-20T06:42:15;20.40;99.90
16513;DHT22;8369;48.030;11.598;2023-07-20T06:44:40;20.40;99.90
16513;DHT22;8369;48.030;11.598;2023-07-20T06:47:06;20.40;99.90
16513;DHT22;8369;48.030;11.598;2023-07-20T06:49:34;20.40;99.90
16513;DHT22;8369;48.030;11.598;2023-07-20T06:52:00;20.50;99.90
16513;DHT22;8369;48.030;11.598;2023-07-20T06:54:27;20.50;99.90
16513;DHT22;8369;48.030;11.598;2023-07-20T06:56:53;20.50;99.90
16513;DHT22;8369;48.030;11.598;2023-07-20T06:59:19;20.50;99.90
16513;DHT22;8369;48.030;11.598;2023-07-20T07:01:45;20.60;99.90
16513;DHT22;8369;48.030;11.598;2023-07-20T07:04:10;20.70;99.90
16513;DHT22;8369;48.030;11.598;2023-07-20T07:06:37;20.80;99.90
16513;DHT22;8369;48.030;11.598;2023-07-20T07:09:04;20.80;99.90
16513;DHT22;8369;48.030;11.598;2023-07-20T07:11:30;20.80;99.90
16513;DHT22;8369;48.030;11.598;2023-07-20T07:13:56;20.70;99.90
16513;DHT22;8369;48.030;11.598;2023-07-20T07:16:22;20.70;99.90
16513;DHT22;8369;48.030;11.598;2023-07-20T07:18:50;20.70;99.90
16513;DHT22;8369;48.030;11.598;2023-07-20T07:21:17;20.70;99.90
16513;DHT22;8369;48.030;11.598;2023-07-20T07:23:43;20.80;99.90
16513;DHT22;8369;48.030;11.598;2023-07-20T07:26:09;20.90;99.90
16513;DHT22;8369;48.030;11.598;2023-07-20T07:28:36;21.00;99.90
16513;DHT22;8369;48.030;11.598;2023-07-20T07:31:05;21.20;99.90
16513;DHT22;8369;48.030;11.598;2023-07-20T07:33:32;21.30;99.90
16513;DHT22;8369;48.030;11.598;2023-07-20T07:35:58;21.40;99.90
16513;DHT22;8369;48.030;11.598;2023-07-20T07:38:24;21.50;99.90
16513;DHT22;8369;48.030;11.598;2023-07-20T07:40:50;21.70;99.90
16513;DHT22;8369;48.030;11.598;2023-07-20T07:43:16;21.90;99.90
16513;DHT22;8369;48.030;11.598;2023-07-20T07:45:42;22.00;99.90
16513;DHT22;8369;48.030;11.598;2023-07-20T07:48:08;22.10;98.10
16513;DHT22;8369;48.030;11.598;2023-07-20T07:50:37;22.10;96.40
16513;DHT22;8369;48.030;11.598;2023-07-20T07:53:04;22.20;97.60
16513;DHT22;8369;48.030;11.598;2023-07-20T07:55:29;22.20;97.00
16513;DHT22;8369;48.030;11.598;2023-07-20T07:57:55;22.20;95.30
16513;DHT22;8369;48.030;11.598;2023-07-20T08:00:21;22.20;95.40
16513;DHT22;8369;48.030;11.598;2023-07-20T08:02:47;22.30;95.00
16513;DHT22;8369;48.030;11.598;2023-07-20T08:05:14;22.20;94.20
16513;DHT22;8369;48.030;11.598;2023-07-20T08:07:40;22.10;93.60
16513;DHT22;8369;48.030;11.598;2023-07-20T08:10:07;22.10;94.30
16513;DHT22;8369;48.030;11.598;2023-07-20T08:12:33;22.10;94.60
16513;DHT22;8369;48.030;11.598;2023-07-20T08:14:58;22.10;95.80
16513;DHT22;8369;48.030;11.598;2023-07-20T08:17:24;22.10;95.60
16513;DHT22;8369;48.030;11.598;2023-07-20T08:19:50;22.10;95.80
16513;DHT22;8369;48.030;11.598;2023-07-20T08:22:16;22.00;94.40
16513;DHT22;8369;48.030;11.598;2023-07-20T08:24:43;22.10;93.70
16513;DHT22;8369;48.030;11.598;2023-07-20T08:27:10;22.10;94.40
16513;DHT22;8369;48.030;11.598;2023-07-20T08:29:36;22.10;94.10
16513;DHT22;8369;48.030;11.598;2023-07-20T08:32:03;22.10;95.10
16513;DHT22;8369;48.030;11.598;2023-07-20T08:34:30;22.20;96.40
16513;DHT22;8369;48.030;11.598;2023-07-20T08:36:57;22.20;95.90
16513;DHT22;8369;48.030;11.598;2023-07-20T08:39:23;22.30;95.40
16513;DHT22;8369;48.030;11.598;2023-07-20T08:41:50;22.50;95.40
16513;DHT22;8369;48.030;11.598;2023-07-20T08:44:17;22.60;95.20
16513;DHT22;8369;48.030;11.598;2023-07-20T08:46:44;22.80;93.90
16513;DHT22;8369;48.030;11.598;2023-07-20T08:49:11;23.00;87.70
16513;DHT22;8369;48.030;11.598;2023-07-20T08:51:38;23.00;87.10
16513;DHT22;8369;48.030;11.598;2023-07-20T08:54:04;23.00;86.20
16513;DHT22;8369;48.030;11.598;2023-07-20T08:56:33;23.00;85.40
16513;DHT22;8369;48.030;11.598;2023-07-20T08:59:01;23.00;84.20
16513;DHT22;8369;48.030;11.598;2023-07-20T09:01:28;23.10;84.50
16513;DHT22;8369;48.030;11.598;2023-07-20T09:03:55;23.00;78.70
16513;DHT22;8369;48.030;11.598;2023-07-20T09:06:22;22.80;78.20
16513;DHT22;8369;48.030;11.598;2023-07-20T09:08:48;22.80;74.40
16513;DHT22;8369;48.030;11.598;2023-07-20T09:11:14;22.80;73.90
16513;DHT22;8369;48.030;11.598;2023-07-20T09:13:40;22.80;73.20
16513;DHT22;8369;48.030;11.598;2023-07-20T09:16:06;22.70;72.40
16513;DHT22;8369;48.030;11.598;2023-07-20T09:18:32;22.70;74.60
16513;DHT22;8369;48.030;11.598;2023-07-20T09:21:04;22.70;75.90
16513;DHT22;8369;48.030;11.598;2023-07-20T09:23:35;22.80;76.10
16513;DHT22;8369;48.030;11.598;2023-07-20T09:26:09;22.90;73.50
16513;DHT22;8369;48.030;11.598;2023-07-20T09:28:49;23.00;73.60
16513;DHT22;8369;48.030;11.598;2023-07-20T09:31:20;23.10;72.30
16513;DHT22;8369;48.030;11.598;2023-07-20T09:33:47;23.40;71.70
16513;DHT22;8369;48.030;11.598;2023-07-20T09:36:14;23.50;70.30
16513;DHT22;8369;48.030;11.598;2023-07-20T09:38:43;23.60;70.00
16513;DHT22;8369;48.030;11.598;2023-07-20T09:41:14;23.60;68.20
16513;DHT22;8369;48.030;11.598;2023-07-20T09:43:41;23.60;69.40
16513;DHT22;8369;48.030;11.598;2023-07-20T09:46:07;23.70;70.40
16513;DHT22;8369;48.030;11.598;2023-07-20T09:48:34;23.80;70.70
16513;DHT22;8369;48.030;11.598;2023-07-20T09:51:00;23.90;71.20
16513;DHT22;8369;48.030;11.598;2023-07-20T09:53:27;24.10;69.20
16513;DHT22;8369;48.030;11.598;2023-07-20T09:55:54;24.10;69.20
16513;DHT22;8369;48.030;11.598;2023-07-20T09:58:22;24.00;70.00
16513;DHT22;8369;48.030;11.598;2023-07-20T10:00:51;23.90;72.60
16513;DHT22;8369;48.030;11.598;2023-07-20T10:03:21;23.80;73.50
16513;DHT22;8369;48.030;11.598;2023-07-20T10:05:54;23.80;75.20
16513;DHT22;8369;48.030;11.598;2023-07-20T10:08:21;23.70;74.90
16513;DHT22;8369;48.030;11.598;2023-07-20T10:10:49;23.70;75.30
16513;DHT22;8369;48.030;11.598;2023-07-20T10:13:21;23.70;72.70
16513;DHT22;8369;48.030;11.598;2023-07-20T10:15:54;23.60;72.60
16513;DHT22;8369;48.030;11.598;2023-07-20T10:18:22;23.50;71.40
16513;DHT22;8369;48.030;11.598;2023-07-20T10:20:54;23.30;72.40
16513;DHT22;8369;48.030;11.598;2023-07-20T10:23:22;23.30;73.20
16513;DHT22;8369;48.030;11.598;2023-07-20T10:25:50;23.30;74.40
16513;DHT22;8369;48.030;11.598;2023-07-20T10:28:16;23.40;76.10
16513;DHT22;8369;48.030;11.598;2023-07-20T10:30:43;23.60;75.80
16513;DHT22;8369;48.030;11.598;2023-07-20T10:33:10;23.80;75.20
16513;DHT22;8369;48.030;11.598;2023-07-20T10:36:05;23.90;72.70
16513;DHT22;8369;48.030;11.598;2023-07-20T10:41:20;23.80;72.00
16513;DHT22;8369;48.030;11.598;2023-07-20T10:43:47;23.80;72.90
16513;DHT22;8369;48.030;11.598;2023-07-20T10:46:13;23.80;71.50
16513;DHT22;8369;48.030;11.598;2023-07-20T10:48:59;23.80;72.40
16513;DHT22;8369;48.030;11.598;2023-07-20T10:51:25;23.70;72.30
16513;DHT22;8369;48.030;11.598;2023-07-20T10:53:52;23.80;72.70
16513;DHT22;8369;48.030;11.598;2023-07-20T10:56:21;24.00;72.40
16513;DHT22;8369;48.030;11.598;2023-07-20T10:58:48;24.10;72.00
16513;DHT22;8369;48.030;11.598;2023-07-20T11:01:18;24.20;72.30
16513;DHT22;8369;48.030;11.598;2023-07-20T11:03:48;24.30;73.80
16513;DHT22;8369;48.030;11.598;2023-07-20T11:06:36;24.30;70.70
16513;DHT22;8369;48.030;11.598;2023-07-20T11:09:12;24.30;69.10
16513;DHT22;8369;48.030;11.598;2023-07-20T11:11:44;24.30;70.00
16513;DHT22;8369;48.030;11.598;2023-07-20T11:14:11;24.30;68.50
16513;DHT22;8369;48.030;11.598;2023-07-20T11:16:46;24.30;68.30
16513;DHT22;8369;48.030;11.598;2023-07-20T11:19:21;24.30;67.40
16513;DHT22;8369;48.030;11.598;2023-07-20T11:21:54;24.20;66.80
16513;DHT22;8369;48.030;11.598;2023-07-20T11:24:20;24.20;69.10
16513;DHT22;8369;48.030;11.598;2023-07-20T11:26:52;24.30;68.50
16513;DHT22;8369;48.030;11.598;2023-07-20T11:29:19;24.30;68.60
16513;DHT22;8369;48.030;11.598;2023-07-20T11:31:46;24.40;69.10
16513;DHT22;8369;48.030;11.598;2023-07-20T11:34:14;24.50;67.20
16513;DHT22;8369;48.030;11.598;2023-07-20T11:36:42;24.70;67.20
16513;DHT22;8369;48.030;11.598;2023-07-20T11:39:10;24.80;66.00
16513;DHT22;8369;48.030;11.598;2023-07-20T11:41:36;25.10;65.10
16513;DHT22;8369;48.030;11.598;2023-07-20T11:44:04;25.10;64.80
16513;DHT22;8369;48.030;11.598;2023-07-20T11:46:33;25.10;64.80
16513;DHT22;8369;48.030;11.598;2023-07-20T11:49:01;25.10;64.80
16513;DHT22;8369;48.030;11.598;2023-07-20T11:51:28;25.10;65.00
16513;DHT22;8369;48.030;11.598;2023-07-20T11:53:56;25.20;65.30
16513;DHT22;8369;48.030;11.598;2023-07-20T11:56:25;25.30;65.60
16513;DHT22;8369;48.030;11.598;2023-07-20T11:58:56;25.50;65.30
16513;DHT22;8369;48.030;11.598;2023-07-20T12:01:26;25.70;65.30
16513;DHT22;8369;48.030;11.598;2023-07-20T12:03:56;25.80;63.70
16513;DHT22;8369;48.030;11.598;2023-07-20T12:06:27;26.00;63.30
16513;DHT22;8369;48.030;11.598;2023-07-20T12:08:57;26.10;63.60
16513;DHT22;8369;48.030;11.598;2023-07-20T12:11:33;26.10;63.10
16513;DHT22;8369;48.030;11.598;2023-07-20T12:14:00;26.20;62.50
16513;DHT22;8369;48.030;11.598;2023-07-20T12:16:29;26.30;62.10
16513;DHT22;8369;48.030;11.598;2023-07-20T12:19:09;26.40;61.80
16513;DHT22;8369;48.030;11.598;2023-07-20T12:21:36;26.40;61.60
16513;DHT22;8369;48.030;11.598;2023-07-20T12:24:04;26.30;61.30
16513;DHT22;8369;48.030;11.598;2023-07-20T12:26:31;26.30;62.10
16513;DHT22;8369;48.030;11.598;2023-07-20T12:28:58;26.40;61.30
16513;DHT22;8369;48.030;11.598;2023-07-20T12:31:25;26.20;59.90
16513;DHT22;8369;48.030;11.598;2023-07-20T12:33:52;26.10;60.50
16513;DHT22;8369;48.030;11.598;2023-07-20T12:36:18;26.20;60.70
16513;DHT22;8369;48.030;11.598;2023-07-20T12:38:45;26.30;60.90
16513;DHT22;8369;48.030;11.598;2023-07-20T12:41:12;26.30;60.40
16513;DHT22;8369;48.030;11.598;2023-07-20T12:43:41;26.40;61.30
16513;DHT22;8369;48.030;11.598;2023-07-20T12:46:07;26.50;60.90
16513;DHT22;8369;48.030;11.598;2023-07-20T12:48:33;26.60;60.90
16513;DHT22;8369;48.030;11.598;2023-07-20T12:51:00;26.70;60.50
16513;DHT22;8369;48.030;11.598;2023-07-20T12:53:27;26.80;60.20
16513;DHT22;8369;48.030;11.598;2023-07-20T12:55:53;26.90;60.40
16513;DHT22;8369;48.030;11.598;2023-07-20T12:58:19;27.00;60.20
16513;DHT22;8369;48.030;11.598;2023-07-20T13:00:45;26.90;59.40
16513;DHT22;8369;48.030;11.598;2023-07-20T13:03:11;26.80;59.90
16513;DHT22;8369;48.030;11.598;2023-07-20T13:05:37;26.80;60.50
16513;DHT22;8369;48.030;11.598;2023-07-20T13:08:03;26.90;60.50
16513;DHT22;8369;48.030;11.598;2023-07-20T13:10:29;26.90;60.90
16513;DHT22;8369;48.030;11.598;2023-07-20T13:12:55;26.90;61.00
16513;DHT22;8369;48.030;11.598;2023-07-20T13:15:24;27.00;60.90
16513;DHT22;8369;48.030;11.598;2023-07-20T13:17:54;27.00;59.80
16513;DHT22;8369;48.030;11.598;2023-07-20T13:20:20;27.00;58.40
16513;DHT22;8369;48.030;11.598;2023-07-20T13:22:46;27.00;59.10
16513;DHT22;8369;48.030;11.598;2023-07-20T13:25:12;27.00;59.90
16513;DHT22;8369;48.030;11.598;2023-07-20T13:27:38;26.90;59.90
16513;DHT22;8369;48.030;11.598;2023-07-20T13:30:05;27.00;59.70
16513;DHT22;8369;48.030;11.598;2023-07-20T13:32:33;27.00;58.70
16513;DHT22;8369;48.030;11.598;2023-07-20T13:34:59;26.90;59.40
16513;DHT22;8369;48.030;11.598;2023-07-20T13:37:25;26.80;60.10
16513;DHT22;8369;48.030;11.598;2023-07-20T13:39:52;26.70;60.40
16513;DHT22;8369;48.030;11.598;2023-07-20T13:42:18;26.60;60.20
16513;DHT22;8369;48.030;11.598;2023-07-20T13:44:45;26.60;61.00
16513;DHT22;8369;48.030;11.598;2023-07-20T13:47:12;26.50;60.20
16513;DHT22;8369;48.030;11.598;2023-07-20T13:49:37;26.40;60.70
16513;DHT22;8369;48.030;11.598;2023-07-20T13:52:03;26.30;61.00
16513;DHT22;8369;48.030;11.598;2023-07-20T13:54:29;26.40;61.30
16513;DHT22;8369;48.030;11.598;2023-07-20T13:56:55;26.40;61.90
16513;DHT22;8369;48.030;11.598;2023-07-20T13:59:28;26.40;60.70
16513;DHT22;8369;48.030;11.598;2023-07-20T14:01:55;26.50;61.60
16513;DHT22;8369;48.030;11.598;2023-07-20T14:04:20;26.60;62.50
16513;DHT22;8369;48.030;11.598;2023-07-20T14:06:46;26.60;62.50
16513;DHT22;8369;48.030;11.598;2023-07-20T14:09:13;26.80;61.30
16513;DHT22;8369;48.030;11.598;2023-07-20T14:11:39;26.90;60.70
16513;DHT22;8369;48.030;11.598;2023-07-20T14:14:04;27.10;59.90
16513;DHT22;8369;48.030;11.598;2023-07-20T14:16:32;27.30;59.40
16513;DHT22;8369;48.030;11.598;2023-07-20T14:18:58;27.30;57.50
16513;DHT22;8369;48.030;11.598;2023-07-20T14:21:24;27.30;58.10
16513;DHT22;8369;48.030;11.598;2023-07-20T14:23:52;27.40;58.80
16513;DHT22;8369;48.030;11.598;2023-07-20T14:26:19;27.60;57.10
16513;DHT22;8369;48.030;11.598;2023-07-20T14:28:45;27.70;57.20
16513;DHT22;8369;48.030;11.598;2023-07-20T14:31:11;27.60;56.40
16513;DHT22;8369;48.030;11.598;2023-07-20T14:33:37;27.60;56.20
16513;DHT22;8369;48.030;11.598;2023-07-20T14:36:03;27.60;57.50
16513;DHT22;8369;48.030;11.598;2023-07-20T14:38:31;27.60;57.20
16513;DHT22;8369;48.030;11.598;2023-07-20T14:40:57;27.80;55.40
16513;DHT22;8369;48.030;11.598;2023-07-20T14:43:24;27.80;56.20
16513;DHT22;8369;48.030;11.598;2023-07-20T14:45:50;27.80;57.00
16513;DHT22;8369;48.030;11.598;2023-07-20T14:48:15;27.80;56.80
16513;DHT22;8369;48.030;11.598;2023-07-20T14:50:42;27.50;56.10
16513;DHT22;8369;48.030;11.598;2023-07-20T14:53:12;27.40;57.10
16513;DHT22;8369;48.030;11.598;2023-07-20T14:55:37;27.30;56.70
16513;DHT22;8369;48.030;11.598;2023-07-20T14:58:03;27.10;57.70
16513;DHT22;8369;48.030;11.598;2023-07-20T15:00:29;27.00;58.10
16513;DHT22;8369;48.030;11.598;2023-07-20T15:02:56;26.90;59.20
16513;DHT22;8369;48.030;11.598;2023-07-20T15:05:23;26.80;58.80
16513;DHT22;8369;48.030;11.598;2023-07-20T15:07:50;26.90;58.40
16513;DHT22;8369;48.030;11.598;2023-07-20T15:10:16;26.80;58.20
16513;DHT22;8369;48.030;11.598;2023-07-20T15:12:42;26.80;58.20
16513;DHT22;8369;48.030;11.598;2023-07-20T15:17:35;27.00;58.10
16513;DHT22;8369;48.030;11.598;2023-07-20T15:20:03;27.00;57.80
16513;DHT22;8369;48.030;11.598;2023-07-20T15:22:33;27.10;58.40
16513;DHT22;8369;48.030;11.598;2023-07-20T15:24:59;27.20;57.50
16513;DHT22;8369;48.030;11.598;2023-07-20T15:27:26;27.20;57.80
16513;DHT22;8369;48.030;11.598;2023-07-20T15:29:52;27.20;57.80
16513;DHT22;8369;48.030;11.598;2023-07-20T15:32:19;27.20;57.70
16513;DHT22;8369;48.030;11.598;2023-07-20T15:34:45;27.20;57.90
16513;DHT22;8369;48.030;11.598;2023-07-20T15:37:11;27.20;58.40
16513;DHT22;8369;48.030;11.598;2023-07-20T15:39:39;27.20;58.50
16513;DHT22;8369;48.030;11.598;2023-07-20T15:42:05;27.30;58.70
16513;DHT22;8369;48.030;11.598;2023-07-20T15:44:31;27.30;57.90
16513;DHT22;8369;48.030;11.598;2023-07-20T15:46:57;27.30;57.90